• Join FlightAware (Why Join?)
  • Login
  • US Flag 
01:14AM EDT


 

Airport Tracker/Info


-or-


 

Live Flight TrackerFlight Track Log ✈ N960DL ✈ 16-Apr-2013 ✈ KMSP - KDCA

Flight Track Log - Related Links

Times and Time Zones

All times are in EDT time to prevent confusion due to time zone crossing. See the N960DL flight status page for this flight to view local times or setup timezone preferences in your user account.

Time Position Orientation Groundspeed Altitude Reporting Facility
EDT Latitude Longitude Course Direction KTS MPH feet Rate Location/Type
08:39AM 44.9053 -93.2425 117° Southeast 159 183 2,500  Level FAA TRACON SMA TRACON (SMA)
08:39AM 44.9211 -93.2533 334° Northwest 193 222 3,200 3,000 Climbing FAA TRACON SMA TRACON (SMA)
08:39AM 44.9456 -93.2522 North 232 267 4,500 3,600 Climbing FAA TRACON SMA TRACON (SMA)
08:40AM 44.9631 -93.2347 35° Northeast 254 292 5,600 2,880 Climbing FAA TRACON SMA TRACON (SMA)
08:40AM 44.9728 -93.2042 66° East 277 319 6,400 3,180 Climbing FAA TRACON SMA TRACON (SMA)
08:40AM 44.9708 -93.1597 94° East 302 348 7,700 3,300 Climbing FAA TRACON SMA TRACON (SMA)
08:41AM 44.7423 -92.7134 113° Southeast  Level Estimated
08:41AM 44.9600 -93.1253 114° Southeast 311 358 8,600  Level FAA TRACON SMA TRACON (SMA)
08:41AM 44.9456 -93.0914 121° Southeast 322 371 9,300 2,700 Climbing FAA TRACON SMA TRACON (SMA)
08:41AM 44.9294 -93.0586 125° Southeast 332 382 10,400 3,000 Climbing FAA TRACON SMA TRACON (SMA)
08:42AM 44.6754 -92.5585 121° Southeast  Level FlightAware Approximate
08:42AM 44.9081 -93.0183 127° Southeast 335 386 11,300  Level FAA TRACON SMA TRACON (SMA)
08:42AM 44.8917 -92.9828 123° Southeast 346 398 11,900 1,800 Climbing FAA TRACON SMA TRACON (SMA)
08:42AM 44.8753 -92.9447 121° Southeast 364 419 12,500 1,920 Climbing FAA TRACON SMA TRACON (SMA)
08:43AM 44.6167 -92.3868 90° East  Level FlightAware Approximate
08:43AM 44.8542 -92.8953 121° Southeast 383 441 13,200  Level FAA TRACON SMA TRACON (SMA)
08:43AM 44.8369 -92.8536 120° Southeast 399 459 13,600 1,500 Climbing FAA TRACON SMA TRACON (SMA)
08:43AM 44.8189 -92.8097 120° Southeast 415 478 14,200 2,400 Climbing FAA TRACON SMA TRACON (SMA)
08:44AM 44.5592 -92.2252 117° Southeast  Level FlightAware Approximate
08:44AM 44.7961 -92.7544 120° Southeast 425 489 15,200  Level FAA TRACON SMA TRACON (SMA)
08:44AM 44.7772 -92.7097 121° Southeast 429 494 15,900 1,560 Climbing FAA TRACON SMA TRACON (SMA)
08:44AM 44.7572 -92.6644 122° Southeast 440 506 16,300 1,800 Climbing FAA TRACON SMA TRACON (SMA)
08:45AM 44.7317 -92.6056 121° Southeast 457 526 17,100 2,400 Climbing FAA TRACON SMA TRACON (SMA)
08:45AM 44.7111 -92.5572 121° Southeast 466 536 17,900 2,400 Climbing FAA TRACON SMA TRACON (SMA)
08:45AM 44.6914 -92.5094 120° Southeast 466 536 18,700 2,400 Climbing FAA TRACON SMA TRACON (SMA)
08:46AM 44.6656 -92.4492 121° Southeast 468 539 19,500 2,220 Climbing FAA TRACON SMA TRACON (SMA)
08:46AM 44.6450 -92.3997 120° Southeast 474 545 20,200 2,400 Climbing FAA TRACON SMA TRACON (SMA)
08:46AM 44.6181 -92.3394 122° Southeast 476 548 21,100 2,220 Climbing FAA TRACON SMA TRACON (SMA)
08:47AM 44.5958 -92.2908 123° Southeast 480 552 21,700 1,680 Climbing FAA TRACON SMA TRACON (SMA)
08:47AM 44.5750 -92.2408 120° Southeast 484 557 22,200 1,680 Climbing FAA TRACON SMA TRACON (SMA)
08:47AM 44.5522 -92.1911 123° Southeast 491 565 22,800 1,920 Climbing FAA TRACON SMA TRACON (SMA)
08:48AM 44.5253 -92.1269 120° Southeast 497 572 23,500 1,920 Climbing FAA TRACON SMA TRACON (SMA)
08:48AM 44.5022 -92.0761 122° Southeast 502 578 24,100 1,620 Climbing FAA TRACON SMA TRACON (SMA)
08:48AM 44.4800 -92.0244 121° Southeast 504 580 24,600 1,620 Climbing FAA TRACON SMA TRACON (SMA)
08:49AM 44.4572 -91.9728 122° Southeast 508 585 25,200 1,320 Climbing FAA TRACON SMA TRACON (SMA)
08:50AM 44.3839 -91.8358 127° Southeast 509 586 26,400 1,620 Climbing Minneapolis Center
08:51AM 44.2914 -91.6333 122° Southeast 516 594 28,500 1,920 Climbing Minneapolis Center
08:52AM 44.2142 -91.4644 122° Southeast 518 596 30,400 1,620 Climbing Minneapolis Center
08:53AM 44.1367 -91.2975 123° Southeast 517 595 31,900 1,260 Climbing Minneapolis Center
08:54AM 44.0650 -91.1414 123° Southeast 513 590 33,000 480 Climbing Minneapolis Center
08:55AM 43.9897 -90.9800 123° Southeast 505 581 33,000  Level Minneapolis Center
08:56AM 43.9133 -90.8175 123° Southeast 504 580 33,000  Level Minneapolis Center
08:57AM 43.8217 -90.6219 123° Southeast 507 583 33,000  Level Minneapolis Center
08:58AM 43.7456 -90.4617 123° Southeast 502 578 33,000  Level Minneapolis Center
08:59AM 43.6694 -90.3039 124° Southeast 497 572 33,000  Level Minneapolis Center
09:00AM 43.5861 -90.1303 123° Southeast 494 568 33,000  Level Minneapolis Center
09:01AM 43.5094 -89.9744 124° Southeast 492 566 33,000  Level Minneapolis Center
09:02AM 43.4450 -89.8461 125° Southeast 490 564 33,000  Level Chicago Center
09:03AM 43.3711 -89.6931 124° Southeast 484 557 33,000  Level Chicago Center
09:04AM 43.2956 -89.5389 124° Southeast 486 559 33,000  Level Chicago Center
09:05AM 43.2194 -89.3875 125° Southeast 485 558 33,000  Level Chicago Center
09:06AM 43.1325 -89.2106 124° Southeast 483 556 33,000  Level Chicago Center
09:07AM 43.0553 -89.0589 125° Southeast 485 558 33,000  Level Chicago Center
09:08AM 42.9792 -88.9067 124° Southeast 488 562 33,000  Level Chicago Center
09:09AM 42.9033 -88.7558 124° Southeast 484 557 33,000  Level Chicago Center
09:10AM 42.8272 -88.6047 124° Southeast 485 558 33,000  Level Chicago Center
09:11AM 42.7361 -88.4286 125° Southeast 490 564 33,000  Level Chicago Center
09:12AM 42.6586 -88.2775 125° Southeast 487 560 33,000  Level Chicago Center
09:13AM 42.5806 -88.1253 125° Southeast 491 565 33,000  Level Chicago Center
09:14AM 42.5033 -87.9739 125° Southeast 489 563 33,000  Level Chicago Center
09:15AM 42.4247 -87.8225 125° Southeast 490 564 33,000  Level Chicago Center
09:16AM 42.3453 -87.6750 126° Southeast 486 559 33,000  Level Chicago Center
09:17AM 42.2675 -87.5278 125° Southeast 482 555 33,000 480 Level Chicago Center
09:18AM 42.1744 -87.3542 126° Southeast 478 550 34,000 900 Climbing Chicago Center
09:19AM 42.0972 -87.2097 126° Southeast 476 548 34,900 480 Climbing Chicago Center
09:20AM 42.0197 -87.0656 126° Southeast 476 548 35,000  Climbing Chicago Center
09:21AM 41.9431 -86.9233 126° Southeast 471 542 35,000  Level Chicago Center
09:22AM 41.8675 -86.7822 126° Southeast 469 540 35,000  Level Chicago Center
09:23AM 41.7867 -86.6342 126° Southeast 459 528 35,000  Level Chicago Center
09:25AM 41.7114 -86.4964 126° Southeast 458 527 35,000  Level Chicago Center
09:26AM 41.6367 -86.3600 126° Southeast 457 526 35,000  Level Chicago Center
09:27AM 41.5608 -86.2225 126° Southeast 460 529 35,000  Level Chicago Center
09:28AM 41.4694 -86.0589 127° Southeast 461 531 35,000  Level Chicago Center
09:29AM 41.3933 -85.9228 127° Southeast 463 533 35,000  Level Chicago Center
09:30AM 41.3156 -85.7856 127° Southeast 467 537 35,000  Level Chicago Center
09:31AM 41.2381 -85.6467 127° Southeast 471 542 35,000  Level Chicago Center
09:32AM 41.1600 -85.5100 127° Southeast 468 539 35,000  Level Chicago Center
09:33AM 41.0667 -85.3447 127° Southeast 468 539 35,000  Level Chicago Center
09:34AM 40.9878 -85.2067 127° Southeast 471 542 35,000  Level Chicago Center
09:35AM 40.9328 -85.0453 114° Southeast 482 555 35,000  Level Chicago Center
09:36AM 40.8831 -84.8839 112° Southeast 480 552 35,000  Level Chicago Center
09:37AM 40.8325 -84.7222 112° Southeast 478 550 35,000  Level Chicago Center
09:38AM 40.7825 -84.5606 112° Southeast 477 549 35,000  Level Chicago Center
09:39AM 40.7211 -84.3667 113° Southeast 480 552 35,000  Level Chicago Center
09:40AM 40.6700 -84.2042 112° Southeast 480 552 35,000  Level Chicago Center
09:41AM 40.6203 -84.0403 112° Southeast 483 556 35,000  Level Chicago Center
09:42AM 40.5678 -83.8792 113° Southeast 481 554 35,000  Level Chicago Center
09:43AM 40.5122 -83.6861 111° Southeast 481 554 35,000  Level Indianapolis Center
09:44AM 40.4606 -83.5228 113° Southeast 478 550 35,000  Level Indianapolis Center
09:45AM 40.4078 -83.3589 113° Southeast 480 552 35,000  Level Indianapolis Center
09:46AM 40.3547 -83.1947 113° Southeast 483 556 35,000  Level Indianapolis Center
09:47AM 40.3011 -83.0314 113° Southeast 481 554 35,000  Level Indianapolis Center
09:48AM 40.2475 -82.8675 113° Southeast 483 556 35,000  Level Indianapolis Center
09:49AM 40.1936 -82.7039 113° Southeast 484 557 35,000  Level Indianapolis Center
09:50AM 40.1308 -82.5125 113° Southeast 485 558 35,000  Level Indianapolis Center
09:51AM 40.0817 -82.3481 111° Southeast 482 555 35,000  Level Indianapolis Center
09:52AM 40.0328 -82.1836 111° Southeast 482 555 35,000  Level Indianapolis Center
09:54AM 39.9836 -82.0203 111° Southeast 481 554 35,000  Level Indianapolis Center
09:55AM 39.9353 -81.8592 111° Southeast 475 547 35,000  Level Indianapolis Center
09:56AM 39.8858 -81.6967 112° Southeast 478 550 35,000  Level Indianapolis Center
09:56AM 39.8581 -81.6161 114° Southeast 475 547 35,000  Level Cleveland Center
09:57AM 39.8117 -81.4558 111° Southeast 475 547 35,000  Level Cleveland Center
09:58AM 39.7731 -81.3150 110° East 469 540 35,000  Level Cleveland Center
09:59AM 39.7239 -81.1553 112° Southeast 469 540 35,000  Level Cleveland Center
10:00AM 39.6744 -80.9983 112° Southeast 474 545 35,000  Level Cleveland Center
10:01AM 39.6250 -80.8417 112° Southeast 474 545 35,000  Level Cleveland Center
10:02AM 39.5856 -80.7281 114° Southeast 466 536 35,000  Level Indianapolis Center
10:03AM 39.5247 -80.5392 113° Southeast 471 542 35,000  Level Indianapolis Center
10:03AM 39.5064 -80.4711 109° East 463 533 35,000  Level Washington Center
10:04AM 39.4581 -80.3253 113° Southeast 471 542 35,000 -540 Level Washington Center
10:05AM 39.4100 -80.1689 112° Southeast 471 542 34,000 -1,260 Descending Washington Center
10:06AM 39.3594 -80.0128 113° Southeast 466 536 32,500 -1,500 Descending Washington Center
10:07AM 39.3069 -79.8567 113° Southeast 466 536 31,000 -1,560 Descending Washington Center
10:08AM 39.2875 -79.6892 98° East 466 536 29,400 -1,560 Descending Washington Center
10:09AM 39.2725 -79.5142 96° East 475 547 27,900 -1,080 Descending Washington Center
10:10AM 39.2594 -79.3392 95° East 487 560 27,300 -900 Descending Washington Center
10:11AM 39.2461 -79.1642 96° East 487 560 26,100 -1,680 Descending Washington Center
10:12AM 39.2303 -78.9919 97° East 487 560 24,000 -2,280 Descending Washington Center
10:13AM 39.2078 -78.8194 100° East 487 560 21,600 -2,640 Descending Washington Center
10:14AM 39.1897 -78.6392 97° East 471 542 18,800 -2,520 Descending Washington Center
10:15AM 39.1764 -78.4967 97° East 452 520 16,600 -2,040 Descending Washington Center
10:16AM 39.1553 -78.3300 99° East 429 494 14,800 -1,200 Descending Washington Center
10:17AM 39.1228 -78.2003 108° East 419 482 14,300 -660 Descending Washington Center
10:18AM 39.0822 -78.0411 108° East 424 488 13,500 -1,020 Descending Washington Center
10:19AM 39.0533 -77.9250 108° East 404 465 12,300 -780 Descending Washington Center
10:20AM 39.0164 -77.7850 109° East 380 437 12,000 -240 Descending Washington Center
10:21AM 38.9872 -77.6694 108° East 375 432 11,900 -300 Descending Washington Center
10:22AM 38.9667 -77.5833 107° East 368 423 11,600 -780 Descending Potomac TRACON
10:23AM 38.9333 -77.4667 110° East 326 375 10,700 -1,260 Descending Potomac TRACON
10:24AM 38.9500 -77.3667 78° East 308 354 9,100 -2,340 Descending Potomac TRACON
10:25AM 39.0000 -77.3000 46° Northeast 297 342 6,300 -2,640 Descending Potomac TRACON
10:26AM 39.0500 -77.2167 52° Northeast 288 331 4,100 -1,680 Descending Potomac TRACON
10:27AM 39.0000 -77.2000 165° South 196 226 3,000 -600 Descending Potomac TRACON
10:28AM 38.9667 -77.1667 142° Southeast 166 191 3,000  Level Potomac TRACON